Time;durP1;ratioP1;P1;durP2;ratioP2;P2;SDS_P1;SDS_P2;PMS_P1;PMS_P2;Temp;Humidity;BMP_temperature;BMP_pressure;BME280_temperature;BME280_humidity;BME280_pressure;Samples;Min_cycle;Max_cycle;Signal;HPM_P1;HPM_P2
2023/04/08 00:01:23;;;;;;;0.57;0.57;;;3.00;99.90;;;;;;5074740;28;20060;-81
2023/04/08 00:03:49;;;;;;;0.10;0.10;;;2.90;99.90;;;;;;5072081;28;20103;-81
2023/04/08 00:06:15;;;;;;;12.30;0.63;;;3.70;99.90;;;;;;5074336;28;20049;-81
2023/04/08 00:08:40;;;;;;;0.10;0.10;;;2.70;99.90;;;;;;5074172;28;20048;-80
2023/04/08 00:11:06;;;;;;;0.50;0.50;;;2.60;99.90;;;;;;5073276;28;20086;-81
2023/04/08 00:13:32;;;;;;;0.88;0.82;;;2.50;99.90;;;;;;5074068;28;20051;-80
2023/04/08 00:15:58;;;;;;;0.10;0.10;;;2.60;99.90;;;;;;5072881;28;20120;-81
2023/04/08 00:18:23;;;;;;;0.00;0.00;;;2.60;99.90;;;;;;5073914;28;20052;-82
2023/04/08 00:20:49;;;;;;;1.17;0.95;;;2.50;99.90;;;;;;5073807;28;20532;-81
2023/04/08 00:23:15;;;;;;;0.28;0.28;;;2.50;99.90;;;;;;5073266;28;20051;-81
2023/04/08 00:25:41;;;;;;;0.10;0.10;;;2.50;99.90;;;;;;5076975;28;20150;-80
2023/04/08 00:28:07;;;;;;;0.10;0.10;;;2.50;99.90;;;;;;5076907;28;20048;-81
2023/04/08 00:30:33;;;;;;;0.55;0.55;;;2.60;99.90;;;;;;5077175;28;20049;-81
2023/04/08 00:33:00;;;;;;;0.30;0.30;;;2.60;99.90;;;;;;5077246;28;20040;-81
2023/04/08 00:35:26;;;;;;;0.10;0.10;;;2.60;99.90;;;;;;5076923;28;20117;-81
2023/04/08 00:37:52;;;;;;;1.30;0.80;;;2.60;99.90;;;;;;5076508;28;20045;-81
2023/04/08 00:40:17;;;;;;;1.08;0.93;;;2.50;99.90;;;;;;5076749;28;20067;-82
2023/04/08 00:42:43;;;;;;;0.00;0.00;;;2.50;99.90;;;;;;5078093;28;20063;-81
2023/04/08 00:45:09;;;;;;;0.43;0.43;;;2.40;99.90;;;;;;5077208;28;20047;-81
2023/04/08 00:47:35;;;;;;;2.20;0.93;;;2.40;99.90;;;;;;5076858;28;20559;-81
2023/04/08 00:50:01;;;;;;;0.20;0.20;;;2.40;99.90;;;;;;5077931;28;20070;-81
2023/04/08 00:52:27;;;;;;;0.22;0.22;;;2.20;99.90;;;;;;5077576;28;20421;-81
2023/04/08 00:54:53;;;;;;;0.15;0.15;;;2.30;99.90;;;;;;5076564;28;20100;-81
2023/04/08 00:57:19;;;;;;;0.75;0.75;;;2.20;99.90;;;;;;5076471;28;20498;-81
2023/04/08 00:59:44;;;;;;;0.32;0.32;;;2.20;99.90;;;;;;5077132;28;20051;-81
2023/04/08 01:02:42;;;;;;;1.27;1.17;;;2.20;99.90;;;;;;5076095;28;20513;-82
2023/04/08 01:05:14;;;;;;;0.35;0.35;;;2.10;99.90;;;;;;5075147;28;20071;-81
2023/04/08 01:07:45;;;;;;;0.20;0.20;;;2.10;99.90;;;;;;5076997;28;20052;-81
2023/04/08 01:10:26;;;;;;;0.17;0.17;;;2.10;99.90;;;;;;5077180;28;20049;-80
2023/04/08 01:12:57;;;;;;;0.90;0.85;;;2.10;99.90;;;;;;5076661;28;20052;-80
2023/04/08 01:15:26;;;;;;;2.20;1.45;;;2.00;99.90;;;;;;5076256;28;20052;-81
2023/04/08 01:17:55;;;;;;;0.00;0.00;;;2.10;99.90;;;;;;5076757;28;20060;-81
2023/04/08 01:20:23;;;;;;;0.05;0.05;;;2.00;99.90;;;;;;5076124;28;20099;-80
2023/04/08 01:23:19;;;;;;;0.30;0.30;;;2.00;99.90;;;;;;5076047;28;20627;-81
2023/04/08 01:25:55;;;;;;;0.27;0.27;;;2.00;99.90;;;;;;5076556;28;20138;-80
2023/04/08 01:28:24;;;;;;;0.00;0.00;;;2.00;99.90;;;;;;5075830;28;20449;-82
2023/04/08 01:30:51;;;;;;;0.15;0.15;;;2.00;99.90;;;;;;5076629;28;20060;-81
2023/04/08 01:33:18;;;;;;;0.47;0.35;;;1.90;99.90;;;;;;5076611;28;20852;-81
2023/04/08 01:35:45;;;;;;;0.00;0.00;;;1.90;99.90;;;;;;5075178;28;20045;-81
2023/04/08 01:38:16;;;;;;;5.03;1.77;;;1.90;99.90;;;;;;5075928;28;20045;-80
2023/04/08 01:40:45;;;;;;;0.10;0.10;;;1.80;99.90;;;;;;5076239;28;20049;-80
2023/04/08 01:43:13;;;;;;;0.00;0.00;;;1.70;99.90;;;;;;5076628;28;20458;-80
2023/04/08 01:45:39;;;;;;;0.68;0.68;;;1.80;99.90;;;;;;5075958;28;20063;-81
2023/04/08 01:48:06;;;;;;;0.40;0.40;;;1.70;99.90;;;;;;5075837;28;20041;-81
2023/04/08 01:50:33;;;;;;;0.32;0.32;;;1.70;99.90;;;;;;5076462;28;20044;-80
2023/04/08 01:52:59;;;;;;;0.15;0.15;;;1.70;99.90;;;;;;5075490;28;20052;-80
2023/04/08 01:55:26;;;;;;;0.20;0.20;;;1.70;99.90;;;;;;5075963;28;20048;-80
2023/04/08 01:57:53;;;;;;;1.58;1.27;;;1.70;99.90;;;;;;5075065;28;20075;-81
2023/04/08 02:00:24;;;;;;;0.63;0.63;;;1.70;99.90;;;;;;5075778;28;20071;-82
2023/04/08 02:02:51;;;;;;;0.45;0.45;;;1.70;99.90;;;;;;5076220;28;20048;-81
2023/04/08 02:05:17;;;;;;;1.35;1.10;;;1.60;99.90;;;;;;5075678;28;20096;-81
2023/04/08 02:07:44;;;;;;;0.55;0.55;;;1.60;99.90;;;;;;5075945;28;20102;-80
2023/04/08 02:10:10;;;;;;;1.88;1.00;;;1.60;99.90;;;;;;5075835;28;20099;-82
2023/04/08 02:12:36;;;;;;;0.20;0.20;;;1.50;99.90;;;;;;5075836;28;20048;-80
2023/04/08 02:15:02;;;;;;;0.00;0.00;;;1.50;99.90;;;;;;5075406;28;20036;-81
2023/04/08 02:17:42;;;;;;;2.28;2.08;;;1.50;99.90;;;;;;5075025;28;20056;-81
2023/04/08 02:20:38;;;;;;;0.25;0.25;;;1.50;99.90;;;;;;5074727;28;20048;-82
2023/04/08 02:23:21;;;;;;;3.42;1.55;;;1.50;99.90;;;;;;5075091;28;20418;-81
2023/04/08 02:25:48;;;;;;;0.85;0.80;;;1.50;99.90;;;;;;5075960;28;20609;-81
2023/04/08 02:28:17;;;;;;;0.47;0.30;;;1.50;99.90;;;;;;5074471;28;20133;-81
2023/04/08 02:30:48;;;;;;;0.47;0.47;;;1.50;99.90;;;;;;5075715;28;20049;-81
2023/04/08 02:33:18;;;;;;;0.10;0.10;;;1.50;99.90;;;;;;5074799;28;20051;-82
2023/04/08 02:35:45;;;;;;;0.20;0.20;;;1.50;99.90;;;;;;5075183;28;20052;-82
2023/04/08 02:38:11;;;;;;;0.63;0.63;;;1.60;99.90;;;;;;5074706;28;20055;-82
2023/04/08 02:40:37;;;;;;;0.10;0.10;;;1.60;99.90;;;;;;5075086;28;20091;-81
2023/04/08 02:43:03;;;;;;;1.40;1.27;;;1.50;99.90;;;;;;5075036;28;20163;-81
2023/04/08 02:45:36;;;;;;;2.25;1.55;;;1.60;99.90;;;;;;5075044;28;20067;-81
2023/04/08 02:48:02;;;;;;;0.32;0.32;;;1.60;99.90;;;;;;5074325;28;20083;-81
2023/04/08 02:50:28;;;;;;;0.20;0.20;;;1.50;99.90;;;;;;5074801;28;20052;-81
2023/04/08 02:52:54;;;;;;;1.27;1.17;;;1.50;99.90;;;;;;5074519;28;20051;-81
2023/04/08 02:55:20;;;;;;;0.00;0.00;;;1.50;99.90;;;;;;5074879;28;20045;-81
2023/04/08 02:57:46;;;;;;;1.23;1.13;;;1.50;99.90;;;;;;5074795;28;20072;-81
2023/04/08 03:00:13;;;;;;;0.38;0.38;;;1.50;99.90;;;;;;5074792;28;20040;-81
2023/04/08 03:02:38;;;;;;;0.20;0.20;;;1.50;99.90;;;;;;5074385;28;20410;-81
2023/04/08 03:05:04;;;;;;;0.10;0.10;;;1.50;99.90;;;;;;5074506;28;20045;-81
2023/04/08 03:07:31;;;;;;;0.35;0.35;;;1.50;99.90;;;;;;5073123;28;20421;-82
2023/04/08 03:09:56;;;;;;;0.43;0.43;;;1.40;99.90;;;;;;5074589;28;20036;-81
2023/04/08 03:12:22;;;;;;;0.20;0.20;;;1.40;99.90;;;;;;5074843;28;20166;-81
2023/04/08 03:14:49;;;;;;;0.05;0.05;;;1.40;99.90;;;;;;5073716;28;20051;-81
2023/04/08 03:17:15;;;;;;;2.38;1.73;;;1.30;99.90;;;;;;5074677;28;20072;-81
2023/04/08 03:19:41;;;;;;;0.93;0.85;;;1.20;99.90;;;;;;5074597;28;20052;-81
2023/04/08 03:22:08;;;;;;;0.98;0.98;;;1.20;99.90;;;;;;5074307;28;20049;-81
2023/04/08 03:24:34;;;;;;;0.20;0.20;;;1.10;99.90;;;;;;5073826;28;20100;-82
2023/04/08 03:27:00;;;;;;;0.20;0.20;;;1.00;99.90;;;;;;5073996;28;20075;-81
2023/04/08 03:29:25;;;;;;;0.13;0.13;;;0.90;99.90;;;;;;5074389;28;20045;-81
2023/04/08 03:31:52;;;;;;;0.20;0.20;;;1.00;99.90;;;;;;5074800;28;20076;-82
2023/04/08 03:34:17;;;;;;;0.30;0.30;;;1.00;99.90;;;;;;5074533;28;20052;-81
2023/04/08 03:36:43;;;;;;;0.80;0.80;;;1.10;99.90;;;;;;5073962;28;20405;-81
2023/04/08 03:39:09;;;;;;;0.08;0.08;;;1.10;99.90;;;;;;5073828;28;20059;-81
2023/04/08 03:41:35;;;;;;;0.55;0.55;;;0.90;99.90;;;;;;5073736;28;20059;-81
2023/04/08 03:44:01;;;;;;;0.10;0.10;;;0.90;99.90;;;;;;5074757;28;20040;-82
2023/04/08 03:46:26;;;;;;;0.00;0.00;;;0.80;99.90;;;;;;5073767;28;20475;-81
2023/04/08 03:48:52;;;;;;;0.20;0.20;;;0.80;99.90;;;;;;5074194;28;20405;-81
2023/04/08 03:51:18;;;;;;;0.22;0.22;;;0.80;99.90;;;;;;5074459;28;20048;-82
2023/04/08 03:53:43;;;;;;;1.25;1.15;;;0.80;99.90;;;;;;5073884;28;20048;-82
2023/04/08 03:56:09;;;;;;;5.20;1.58;;;0.80;99.90;;;;;;5073816;28;20048;-82
2023/04/08 03:58:35;;;;;;;0.30;0.30;;;0.80;99.90;;;;;;5073906;28;20104;-82
2023/04/08 04:01:00;;;;;;;1.98;1.55;;;0.80;99.90;;;;;;5077190;28;20050;-83
2023/04/08 04:03:26;;;;;;;0.00;0.00;;;0.80;99.90;;;;;;5076887;28;20040;-82
2023/04/08 04:05:52;;;;;;;3.13;1.55;;;0.80;99.90;;;;;;5077758;28;20051;-82
2023/04/08 04:08:18;;;;;;;1.20;1.10;;;0.80;99.90;;;;;;5077936;28;20123;-81
2023/04/08 04:10:43;;;;;;;1.23;1.05;;;0.70;99.90;;;;;;5077354;28;20059;-82
2023/04/08 04:13:09;;;;;;;0.10;0.10;;;0.70;99.90;;;;;;5078641;28;20044;-81
2023/04/08 04:15:39;;;;;;;1.10;0.57;;;0.90;99.90;;;;;;5078599;28;20060;-82
2023/04/08 04:18:05;;;;;;;0.00;0.00;;;0.90;99.90;;;;;;5078035;28;20057;-81
2023/04/08 04:20:31;;;;;;;0.10;0.10;;;0.90;99.90;;;;;;5078146;28;20040;-82
2023/04/08 04:22:57;;;;;;;0.10;0.10;;;0.90;99.90;;;;;;5077424;28;20490;-82
2023/04/08 04:25:22;;;;;;;0.60;0.60;;;0.90;99.90;;;;;;5077100;28;20033;-82
2023/04/08 04:27:48;;;;;;;1.25;1.17;;;0.90;99.90;;;;;;5077384;28;20080;-82
2023/04/08 04:30:14;;;;;;;0.25;0.25;;;1.00;99.90;;;;;;5077026;28;20131;-82
2023/04/08 04:32:43;;;;;;;0.43;0.43;;;1.00;99.90;;;;;;5077446;28;20076;-82
2023/04/08 04:35:12;;;;;;;0.10;0.10;;;0.90;99.90;;;;;;5058706;28;20051;-82
2023/04/08 04:37:38;;;;;;;0.38;0.38;;;1.00;99.90;;;;;;5077702;28;20060;-82
2023/04/08 04:40:04;;;;;;;0.28;0.28;;;1.00;99.90;;;;;;5077541;28;20036;-82
2023/04/08 04:42:31;;;;;;;1.45;1.33;;;1.00;99.90;;;;;;5077538;28;20097;-82
2023/04/08 04:44:57;;;;;;;0.73;0.60;;;1.00;99.90;;;;;;5077647;28;20063;-82
2023/04/08 04:47:24;;;;;;;0.50;0.50;;;1.00;99.90;;;;;;5077091;28;20056;-81
2023/04/08 04:49:50;;;;;;;1.52;1.23;;;1.00;99.90;;;;;;5076568;28;20060;-82
2023/04/08 04:52:16;;;;;;;1.23;1.13;;;1.00;99.90;;;;;;5077868;28;20070;-82
2023/04/08 04:54:42;;;;;;;1.02;0.93;;;1.00;99.90;;;;;;5076480;28;20811;-82
2023/04/08 04:57:09;;;;;;;0.10;0.10;;;1.00;99.90;;;;;;5078042;28;20087;-82
2023/04/08 04:59:35;;;;;;;1.48;1.38;;;1.10;99.90;;;;;;5078005;28;20112;-81
2023/04/08 05:02:01;;;;;;;1.10;1.02;;;1.10;99.90;;;;;;5077915;28;20525;-81
2023/04/08 05:04:27;;;;;;;1.00;1.00;;;1.10;99.90;;;;;;5077171;28;20079;-82
2023/04/08 05:06:53;;;;;;;0.82;0.77;;;1.20;99.90;;;;;;5076674;28;20608;-82
2023/04/08 05:09:18;;;;;;;1.20;1.10;;;1.20;99.90;;;;;;5076239;28;20044;-81
2023/04/08 05:11:44;;;;;;;0.10;0.10;;;1.30;99.90;;;;;;5076960;28;20048;-82
2023/04/08 05:14:10;;;;;;;1.25;1.20;;;1.60;99.90;;;;;;5076827;28;20052;-82
2023/04/08 05:16:35;;;;;;;1.27;1.17;;;1.60;99.90;;;;;;5077011;28;20056;-82
2023/04/08 05:19:01;;;;;;;1.55;1.30;;;1.70;99.90;;;;;;5076691;28;20503;-82
2023/04/08 05:21:26;;;;;;;1.02;1.00;;;1.90;99.90;;;;;;5077032;28;20066;-82
2023/04/08 05:23:53;;;;;;;5.93;2.90;;;2.00;99.90;;;;;;5077117;28;20044;-82
2023/04/08 05:26:21;;;;;;;0.20;0.20;;;2.10;99.90;;;;;;5075522;28;20048;-82
2023/04/08 05:28:48;;;;;;;0.10;0.10;;;2.10;99.90;;;;;;5076325;28;20054;-82
2023/04/08 05:31:18;;;;;;;0.38;0.38;;;2.20;99.90;;;;;;5077328;28;20047;-82
2023/04/08 05:33:44;;;;;;;1.88;1.75;;;2.30;99.90;;;;;;5077580;28;20455;-82
2023/04/08 05:36:13;;;;;;;0.05;0.05;;;2.40;99.90;;;;;;5078096;28;20041;-83
2023/04/08 05:38:41;;;;;;;0.52;0.45;;;2.60;99.90;;;;;;5077596;28;20049;-83
2023/04/08 05:41:07;;;;;;;1.30;1.20;;;2.80;99.90;;;;;;5077101;28;20466;-83
2023/04/08 05:43:33;;;;;;;0.32;0.32;;;3.00;99.90;;;;;;5077314;28;20044;-83
2023/04/08 05:45:58;;;;;;;1.33;1.23;;;3.20;99.90;;;;;;5077772;28;20053;-83
2023/04/08 05:48:24;;;;;;;0.95;0.93;;;3.40;99.90;;;;;;5077063;28;20394;-83
2023/04/08 05:50:50;;;;;;;2.10;0.95;;;3.60;99.90;;;;;;5076603;28;20047;-83
2023/04/08 05:53:15;;;;;;;0.70;0.70;;;3.70;99.90;;;;;;5075185;28;20548;-83
2023/04/08 05:55:41;;;;;;;2.28;1.95;;;3.90;99.90;;;;;;5076529;28;20044;-83
2023/04/08 05:58:07;;;;;;;0.10;0.10;;;4.00;99.90;;;;;;5076566;28;20048;-83
2023/04/08 06:00:33;;;;;;;1.77;1.67;;;4.10;99.90;;;;;;5074762;28;20048;-83
2023/04/08 06:02:59;;;;;;;1.23;1.13;;;4.10;99.90;;;;;;5078148;28;20473;-83
2023/04/08 06:05:24;;;;;;;0.50;0.50;;;4.00;99.90;;;;;;5077359;28;20048;-83
2023/04/08 06:07:50;;;;;;;1.13;1.05;;;4.00;99.90;;;;;;5077563;28;20048;-83
2023/04/08 06:10:16;;;;;;;4.13;1.58;;;4.10;99.90;;;;;;5077282;28;20094;-83
2023/04/08 06:12:42;;;;;;;2.72;1.23;;;4.10;99.90;;;;;;5076404;28;20358;-83
2023/04/08 06:15:09;;;;;;;0.45;0.45;;;4.20;99.90;;;;;;5077815;28;20124;-82
2023/04/08 06:17:38;;;;;;;0.17;0.17;;;4.30;99.90;;;;;;5077428;28;20052;-83
2023/04/08 06:20:05;;;;;;;0.82;0.82;;;4.40;99.90;;;;;;5077079;28;20045;-82
2023/04/08 06:22:31;;;;;;;2.50;2.00;;;4.50;99.90;;;;;;5076021;28;20044;-83
2023/04/08 06:24:56;;;;;;;1.27;1.17;;;4.40;99.90;;;;;;5076062;28;20051;-83
2023/04/08 06:27:22;;;;;;;0.95;0.93;;;4.50;99.90;;;;;;5077217;28;20404;-83
2023/04/08 06:29:48;;;;;;;0.30;0.30;;;4.70;99.90;;;;;;5076145;28;20045;-83
2023/04/08 06:32:14;;;;;;;1.85;1.40;;;4.80;99.90;;;;;;5077668;28;20063;-82
2023/04/08 06:34:40;;;;;;;3.72;2.25;;;5.00;99.90;;;;;;5076368;28;20048;-83
2023/04/08 06:37:06;;;;;;;1.52;1.42;;;5.00;99.90;;;;;;5078334;28;20059;-84
2023/04/08 06:39:32;;;;;;;2.40;1.38;;;5.10;99.90;;;;;;5076836;28;20044;-83
2023/04/08 06:41:58;;;;;;;2.35;2.08;;;5.20;99.90;;;;;;5077837;28;20054;-84
2023/04/08 06:44:23;;;;;;;2.03;0.90;;;5.10;99.90;;;;;;5077495;28;20379;-84
2023/04/08 06:46:49;;;;;;;1.83;1.73;;;5.80;99.90;;;;;;5076363;28;20048;-83
2023/04/08 06:49:15;;;;;;;0.57;0.52;;;6.50;99.90;;;;;;5075991;28;20048;-83
2023/04/08 06:51:40;;;;;;;2.17;1.98;;;7.20;99.90;;;;;;5076366;28;20075;-80
2023/04/08 06:54:06;;;;;;;2.13;1.35;;;7.50;99.90;;;;;;5074418;28;20044;-83
2023/04/08 06:56:32;;;;;;;1.08;0.98;;;7.40;99.90;;;;;;5066863;28;20036;-80
2023/04/08 06:58:58;;;;;;;1.55;1.45;;;6.90;99.90;;;;;;5067456;28;20173;-80
2023/04/08 07:01:24;;;;;;;1.40;0.95;;;6.50;99.90;;;;;;5068440;28;20041;-83
2023/04/08 07:03:49;;;;;;;0.93;0.82;;;6.50;99.90;;;;;;5064785;28;20222;-83
2023/04/08 07:06:15;;;;;;;1.60;1.50;;;7.00;99.90;;;;;;5065762;28;20096;-83
2023/04/08 07:08:41;;;;;;;0.75;0.68;;;7.50;99.90;;;;;;5065561;28;20079;-83
2023/04/08 07:11:07;;;;;;;3.20;0.77;;;7.40;99.90;;;;;;5067605;28;20052;-81
2023/04/08 07:13:32;;;;;;;0.95;0.70;;;7.90;99.90;;;;;;5066696;28;20375;-81
2023/04/08 07:15:58;;;;;;;1.85;1.17;;;7.80;1.00;;;;;;5066529;28;20043;-80
2023/04/08 07:18:25;;;;;;;2.75;1.98;;;7.90;99.90;;;;;;5065997;28;20103;-80
2023/04/08 07:20:53;;;;;;;0.40;0.35;;;7.90;99.90;;;;;;5066872;28;20125;-80
2023/04/08 07:23:19;;;;;;;0.65;0.65;;;8.00;99.90;;;;;;5064724;28;20059;-80
2023/04/08 07:25:46;;;;;;;0.75;0.68;;;8.00;99.90;;;;;;5065389;28;20036;-81
2023/04/08 07:28:12;;;;;;;0.93;0.88;;;7.70;99.90;;;;;;5065536;28;20106;-83
2023/04/08 07:30:38;;;;;;;6.15;1.75;;;7.60;99.90;;;;;;5064619;28;20048;-83
2023/04/08 07:33:03;;;;;;;3.95;2.47;;;7.50;99.90;;;;;;5064335;28;20513;-83
2023/04/08 07:35:30;;;;;;;2.85;2.28;;;7.40;1.00;;;;;;5064692;28;20116;-83
2023/04/08 07:37:56;;;;;;;1.25;1.15;;;7.50;1.00;;;;;;5064650;28;20058;-83
2023/04/08 07:40:22;;;;;;;5.80;1.77;;;7.50;1.00;;;;;;5066102;28;20036;-83
2023/04/08 07:42:48;;;;;;;1.25;0.82;;;7.50;1.00;;;;;;5065333;28;20086;-84
2023/04/08 07:45:14;;;;;;;3.97;1.52;;;7.50;1.00;;;;;;5066599;28;20773;-81
2023/04/08 07:47:40;;;;;;;4.40;1.98;;;7.40;1.00;;;;;;5065955;28;20059;-81
2023/04/08 07:50:06;;;;;;;2.80;0.90;;;7.40;99.90;;;;;;5067257;28;20127;-81
2023/04/08 07:52:32;;;;;;;1.42;1.02;;;7.30;1.00;;;;;;5066064;28;20044;-83
2023/04/08 07:54:58;;;;;;;0.98;0.70;;;7.30;1.00;;;;;;5065373;28;20041;-83
2023/04/08 07:57:25;;;;;;;3.83;1.38;;;7.20;99.90;;;;;;5066304;28;20182;-83
2023/04/08 07:59:50;;;;;;;3.08;0.88;;;7.10;26.10;;;;;;5065512;28;20049;-83
2023/04/08 08:02:16;;;;;;;4.55;0.93;;;7.50;1.00;;;;;;5063896;28;20225;-83
2023/04/08 08:04:42;;;;;;;0.75;0.75;;;8.10;99.90;;;;;;5067480;28;20164;-81
2023/04/08 08:07:08;;;;;;;0.13;0.13;;;8.40;1.00;;;;;;5066653;28;20051;-81
2023/04/08 08:09:33;;;;;;;0.82;0.60;;;8.10;1.00;;;;;;5066962;28;20048;-80
2023/04/08 08:11:59;;;;;;;2.88;1.67;;;8.10;62.40;;;;;;5067396;28;20055;-81
2023/04/08 08:14:25;;;;;;;2.75;1.90;;;9.00;99.90;;;;;;5063298;28;20131;-80
2023/04/08 08:16:52;;;;;;;0.65;0.55;;;9.50;58.70;;;;;;5062637;28;20065;-81
2023/04/08 08:19:19;;;;;;;1.15;1.05;;;10.30;75.40;;;;;;5063214;28;20052;-81
2023/04/08 08:21:45;;;;;;;2.00;1.45;;;10.50;44.90;;;;;;5063747;28;20048;-81
2023/04/08 08:24:11;;;;;;;2.55;1.48;;;11.00;99.90;;;;;;5063933;28;20102;-81
2023/04/08 08:26:37;;;;;;;0.98;0.82;;;11.20;6.10;;;;;;5066215;28;20091;-80
2023/04/08 08:29:03;;;;;;;1.45;1.17;;;10.70;99.90;;;;;;5066308;28;20044;-81
2023/04/08 08:31:29;;;;;;;3.63;1.58;;;10.20;52.40;;;;;;5066396;28;20048;-81
2023/04/08 08:33:55;;;;;;;1.02;0.93;;;10.00;99.90;;;;;;5065239;28;20048;-81
2023/04/08 08:36:21;;;;;;;2.65;1.17;;;10.20;99.90;;;;;;5065855;28;20498;-81
2023/04/08 08:38:47;;;;;;;1.13;0.82;;;11.10;99.90;;;;;;5065285;28;20506;-81
2023/04/08 08:41:13;;;;;;;0.30;0.30;;;11.50;99.90;;;;;;5064886;28;20049;-81
2023/04/08 08:43:39;;;;;;;1.55;0.73;;;11.10;99.90;;;;;;5067419;28;20045;-81
2023/04/08 08:46:08;;;;;;;1.35;1.25;;;10.60;1.00;;;;;;5069758;28;20051;-81
2023/04/08 08:48:37;;;;;;;4.70;2.22;;;10.40;54.80;;;;;;5070641;28;20194;-80
2023/04/08 08:51:10;;;;;;;2.28;1.20;;;10.10;81.10;;;;;;5071428;28;20051;-81
2023/04/08 08:53:36;;;;;;;1.15;1.05;;;10.10;99.90;;;;;;5071576;28;20414;-81
2023/04/08 08:56:03;;;;;;;0.70;0.55;;;10.10;1.00;;;;;;5071102;28;20441;-81
2023/04/08 08:58:29;;;;;;;1.60;1.17;;;9.50;1.00;;;;;;5071776;28;20071;-81
2023/04/08 09:00:55;;;;;;;4.18;2.17;;;9.90;99.90;;;;;;5069249;28;20047;-81
2023/04/08 09:03:22;;;;;;;0.65;0.57;;;9.90;99.90;;;;;;5070967;28;20048;-81
2023/04/08 09:05:48;;;;;;;0.90;0.80;;;9.40;99.90;;;;;;5070315;28;20056;-81
2023/04/08 09:08:30;;;;;;;0.68;0.68;;;9.10;1.00;;;;;;5069868;28;20098;-81
2023/04/08 09:11:10;;;;;;;0.43;0.43;;;8.90;99.90;;;;;;5069716;28;20060;-81
2023/04/08 09:13:36;;;;;;;0.88;0.88;;;8.90;1.00;;;;;;5068872;28;20078;-81
2023/04/08 09:16:08;;;;;;;0.98;0.70;;;8.80;99.90;;;;;;5071000;28;20092;-81
2023/04/08 09:18:37;;;;;;;1.52;1.42;;;8.70;1.00;;;;;;5070614;28;20048;-81
2023/04/08 09:21:04;;;;;;;3.33;1.50;;;8.80;1.00;;;;;;5070261;28;20465;-81
2023/04/08 09:23:41;;;;;;;1.73;1.35;;;8.70;99.90;;;;;;5070675;28;20053;-81
2023/04/08 09:26:09;;;;;;;1.98;0.60;;;8.70;99.90;;;;;;5069515;28;20648;-81
2023/04/08 09:28:35;;;;;;;6.00;1.55;;;8.80;99.90;;;;;;5070360;28;20115;-82
2023/04/08 09:31:08;;;;;;;2.53;1.55;;;9.00;1.00;;;;;;5069972;28;20477;-82
2023/04/08 09:33:33;;;;;;;2.88;0.93;;;9.20;54.10;;;;;;5067731;28;20052;-82
2023/04/08 09:35:59;;;;;;;2.10;1.45;;;10.20;1.00;;;;;;5069600;28;20048;-82
2023/04/08 09:38:25;;;;;;;0.28;0.28;;;9.50;99.90;;;;;;5070386;28;20052;-82
2023/04/08 09:40:51;;;;;;;3.90;2.15;;;9.70;1.00;;;;;;5069292;28;20633;-82
2023/04/08 09:43:22;;;;;;;0.03;0.03;;;9.80;99.90;;;;;;5070612;28;20059;-83
2023/04/08 09:45:49;;;;;;;0.98;0.88;;;10.00;19.00;;;;;;5068644;28;20060;-82
2023/04/08 09:48:21;;;;;;;1.00;0.75;;;9.90;1.00;;;;;;5067746;28;20056;-82
2023/04/08 09:50:50;;;;;;;4.85;1.38;;;9.80;99.90;;;;;;5066431;28;20049;-82
2023/04/08 09:53:37;;;;;;;5.40;2.45;;;10.00;99.90;;;;;;5067580;28;20044;-82
2023/04/08 09:56:06;;;;;;;0.90;0.45;;;9.80;71.60;;;;;;5067004;28;20047;-82
2023/04/08 09:58:41;;;;;;;1.30;0.75;;;10.00;99.90;;;;;;5067797;28;20056;-82
2023/04/08 10:01:10;;;;;;;0.28;0.28;;;9.80;68.80;;;;;;5067383;28;20483;-82
2023/04/08 10:03:43;;;;;;;1.98;0.77;;;9.60;99.90;;;;;;5067407;28;20045;-82
2023/04/08 10:06:10;;;;;;;0.30;0.30;;;9.50;41.40;;;;;;5068270;28;20052;-82
2023/04/08 10:08:36;;;;;;;2.25;0.57;;;9.60;99.90;;;;;;5067749;28;20107;-82
2023/04/08 10:11:02;;;;;;;0.43;0.30;;;9.60;99.90;;;;;;5069275;28;20044;-82
2023/04/08 10:13:28;;;;;;;1.20;1.10;;;9.70;1.00;;;;;;5069090;28;20047;-82
2023/04/08 10:16:17;;;;;;;0.30;0.22;;;9.60;99.90;;;;;;5070178;28;20055;-82
2023/04/08 10:18:44;;;;;;;0.00;0.00;;;9.70;1.00;;;;;;5067855;28;20117;-82
2023/04/08 10:21:42;;;;;;;0.52;0.45;;;9.70;99.90;;;;;;5068682;28;20048;-82
2023/04/08 10:24:09;;;;;;;0.90;0.88;;;9.70;99.90;;;;;;5067704;28;20084;-82
2023/04/08 10:26:39;;;;;;;0.43;0.38;;;9.70;1.00;;;;;;5068453;28;20502;-82
2023/04/08 10:29:17;;;;;;;1.35;0.60;;;9.70;84.20;;;;;;5071623;28;20127;-82
2023/04/08 10:31:44;;;;;;;2.35;0.73;;;9.80;99.90;;;;;;5072221;28;20145;-82
2023/04/08 10:34:21;;;;;;;0.30;0.30;;;10.00;99.90;;;;;;5072577;28;20048;-83
2023/04/08 10:36:48;;;;;;;2.28;1.42;;;10.00;99.90;;;;;;5070156;28;20067;-82
2023/04/08 10:39:15;;;;;;;1.00;0.88;;;10.00;99.90;;;;;;5070126;28;20533;-83
2023/04/08 10:41:49;;;;;;;2.80;1.42;;;10.00;1.00;;;;;;5071022;28;20048;-81
2023/04/08 10:44:16;;;;;;;1.60;1.48;;;10.20;1.00;;;;;;5070385;28;20048;-81
2023/04/08 10:46:43;;;;;;;0.47;0.47;;;10.20;70.50;;;;;;5070952;28;20060;-83
2023/04/08 10:49:08;;;;;;;1.52;0.65;;;11.20;1.00;;;;;;5070624;28;20048;-83
2023/04/08 10:51:34;;;;;;;0.40;0.40;;;10.30;1.00;;;;;;5068242;28;20165;-82
2023/04/08 10:54:15;;;;;;;0.68;0.68;;;10.70;99.90;;;;;;5070550;28;20529;-82
2023/04/08 10:56:49;;;;;;;3.10;1.52;;;10.90;1.00;;;;;;5070738;28;20044;-81
2023/04/08 10:59:25;;;;;;;4.22;2.00;;;11.00;99.90;;;;;;5070923;28;20044;-81
2023/04/08 11:01:51;;;;;;;0.80;0.80;;;11.10;99.90;;;;;;5070632;28;20051;-83
2023/04/08 11:04:18;;;;;;;3.35;2.03;;;11.30;99.90;;;;;;5068971;28;20048;-82
2023/04/08 11:06:46;;;;;;;3.03;1.50;;;11.20;99.90;;;;;;5067461;28;20120;-81
2023/04/08 11:09:13;;;;;;;0.20;0.20;;;10.90;99.90;;;;;;5089928;28;20028;-81
2023/04/08 11:11:43;;;;;;;2.15;1.40;;;10.80;99.90;;;;;;5090217;28;20044;-82
2023/04/08 11:14:09;;;;;;;4.95;1.33;;;11.30;1.00;;;;;;5090483;28;20088;-82
2023/04/08 11:16:39;;;;;;;1.00;0.55;;;10.70;99.90;;;;;;5078141;28;20053;-82
2023/04/08 11:19:06;;;;;;;1.35;0.57;;;10.60;1.00;;;;;;5072024;28;20040;-82
2023/04/08 11:21:37;;;;;;;0.98;0.93;;;10.80;99.90;;;;;;5071587;28;20083;-82
2023/04/08 11:24:11;;;;;;;0.73;0.70;;;11.10;99.90;;;;;;5069757;28;20056;-83
2023/04/08 11:26:37;;;;;;;0.40;0.40;;;11.10;99.90;;;;;;5070277;28;20406;-82
2023/04/08 11:29:05;;;;;;;2.38;1.15;;;11.20;99.90;;;;;;5071616;28;20036;-81
2023/04/08 11:31:34;;;;;;;1.58;1.20;;;11.30;99.90;;;;;;5071681;28;20075;-82
2023/04/08 11:34:00;;;;;;;2.22;1.85;;;11.20;99.90;;;;;;5071668;28;20032;-81
2023/04/08 11:36:28;;;;;;;2.45;1.13;;;11.20;1.00;;;;;;5071124;28;20120;-82
2023/04/08 11:38:54;;;;;;;2.03;1.60;;;11.60;1.00;;;;;;5071233;28;20102;-82
2023/04/08 11:41:21;;;;;;;2.25;1.67;;;10.90;99.90;;;;;;5071445;28;20094;-82
2023/04/08 11:43:55;;;;;;;3.50;1.65;;;10.80;99.90;;;;;;5070577;28;20127;-83
2023/04/08 11:46:21;;;;;;;1.13;0.95;;;10.70;99.90;;;;;;5069233;28;20058;-82
2023/04/08 11:49:04;;;;;;;0.50;0.50;;;10.70;1.00;;;;;;5052586;28;20052;-82
2023/04/08 11:51:34;;;;;;;3.72;2.67;;;10.80;99.90;;;;;;5070965;28;20044;-82
2023/04/08 11:54:05;;;;;;;2.20;1.45;;;10.60;99.90;;;;;;5070972;28;20059;-81
2023/04/08 11:56:32;;;;;;;3.58;1.95;;;10.50;99.90;;;;;;5069581;28;20407;-82
2023/04/08 11:58:58;;;;;;;2.15;0.80;;;10.40;99.90;;;;;;5071376;28;20044;-82
2023/04/08 12:01:23;;;;;;;0.75;0.75;;;10.30;99.90;;;;;;5052951;28;20109;-83
2023/04/08 12:03:59;;;;;;;1.83;0.73;;;10.20;1.00;;;;;;5070451;28;20395;-82
2023/04/08 12:06:26;;;;;;;;;;;10.30;99.90;;;;;;5070918;28;20048;-82
2023/04/08 12:08:53;;;;;;;1.65;1.15;;;10.30;99.90;;;;;;5070707;28;20416;-81
2023/04/08 12:11:19;;;;;;;0.52;0.47;;;10.00;99.90;;;;;;5070794;28;20592;-82
2023/04/08 12:13:44;;;;;;;2.33;1.92;;;10.30;62.60;;;;;;5052174;28;20076;-82
2023/04/08 12:16:11;;;;;;;2.22;1.92;;;10.40;21.80;;;;;;5068848;28;20049;-80
2023/04/08 12:18:37;;;;;;;2.25;1.92;;;10.50;99.90;;;;;;5071065;28;20040;-82
2023/04/08 12:21:03;;;;;;;2.55;1.95;;;10.50;99.90;;;;;;5071364;28;20048;-82
2023/04/08 12:23:28;;;;;;;1.95;1.52;;;10.50;1.00;;;;;;5071735;28;20048;-82
2023/04/08 12:25:54;;;;;;;2.35;1.35;;;10.40;99.90;;;;;;5073295;28;20108;-82
2023/04/08 12:28:20;;;;;;;2.70;1.45;;;10.30;1.00;;;;;;5073458;28;20052;-82
2023/04/08 12:30:46;;;;;;;1.77;1.05;;;10.40;99.90;;;;;;5073019;28;20059;-82
2023/04/08 12:33:12;;;;;;;3.00;2.00;;;10.50;99.90;;;;;;5072535;28;20436;-82
2023/04/08 12:35:37;;;;;;;1.70;1.38;;;10.50;99.90;;;;;;5074652;28;20061;-82
2023/04/08 12:38:03;;;;;;;0.68;0.63;;;10.50;99.90;;;;;;5074610;28;20047;-82
2023/04/08 12:40:29;;;;;;;7.32;3.25;;;10.50;99.90;;;;;;5073083;28;20131;-82
2023/04/08 12:42:54;;;;;;;3.40;2.28;;;10.40;7.20;;;;;;5075032;28;20056;-82
2023/04/08 12:45:20;;;;;;;3.33;2.08;;;10.80;1.00;;;;;;5074575;28;20055;-82
2023/04/08 12:47:46;;;;;;;3.42;1.60;;;10.50;1.00;;;;;;5075364;28;20045;-82
2023/04/08 12:50:11;;;;;;;2.20;1.75;;;10.60;1.00;;;;;;5074741;28;20589;-81
2023/04/08 12:52:37;;;;;;;0.93;0.82;;;10.50;1.00;;;;;;5073597;28;20043;-81
2023/04/08 12:55:04;;;;;;;1.98;1.48;;;10.50;1.00;;;;;;5074902;28;20048;-82
2023/04/08 12:57:30;;;;;;;3.17;1.77;;;10.50;1.00;;;;;;5074583;28;20467;-82